createdAt,value
2018-06-08T00:00:20.291Z,986.23
2018-06-08T00:01:30.036Z,986.23
2018-06-08T00:02:40.079Z,986.25
2018-06-08T00:03:49.865Z,986.23
2018-06-08T00:04:59.871Z,986.23
2018-06-08T00:06:09.884Z,986.22
2018-06-08T00:07:19.893Z,986.25
2018-06-08T00:08:29.958Z,986.22
2018-06-08T00:09:39.975Z,986.23
2018-06-08T00:10:49.983Z,986.24
2018-06-08T00:11:59.991Z,986.24
2018-06-08T00:13:09.735Z,986.25
2018-06-08T00:14:19.745Z,986.24
2018-06-08T00:15:29.755Z,986.24
2018-06-08T00:16:39.767Z,986.21
2018-06-08T00:17:49.778Z,986.21
2018-06-08T00:18:59.796Z,986.22
2018-06-08T00:20:09.811Z,986.19
2018-06-08T00:21:19.826Z,986.21
2018-06-08T00:22:29.837Z,986.22
2018-06-08T00:23:39.321Z,986.21
2018-06-08T00:24:49.331Z,986.2
2018-06-08T00:25:59.084Z,986.16
2018-06-08T00:27:08.824Z,986.19
2018-06-08T00:28:18.839Z,986.21
2018-06-08T00:29:28.916Z,986.2
2018-06-08T00:30:38.924Z,986.2
2018-06-08T00:31:48.663Z,986.23
2018-06-08T00:32:58.402Z,986.26
2018-06-08T00:34:08.149Z,986.21
2018-06-08T00:35:18.165Z,986.21
2018-06-08T00:36:28.169Z,986.25
2018-06-08T00:37:38.174Z,986.2
2018-06-08T00:38:47.910Z,986.22
2018-06-08T00:39:57.919Z,986.3
2018-06-08T00:41:07.929Z,986.24
2018-06-08T00:42:17.938Z,986.25
2018-06-08T00:43:27.950Z,986.26
2018-06-08T00:44:37.959Z,986.27
2018-06-08T00:45:47.966Z,986.28
2018-06-08T00:46:57.710Z,986.26
2018-06-08T00:48:07.185Z,986.27
2018-06-08T00:49:17.204Z,986.3
2018-06-08T00:50:26.942Z,986.24
2018-06-08T00:51:36.943Z,986.26
2018-06-08T00:52:46.429Z,986.25
2018-06-08T00:53:56.221Z,986.26
2018-06-08T00:55:05.962Z,986.27
2018-06-08T00:56:15.173Z,986.25
2018-06-08T00:57:25.187Z,986.21
2018-06-08T00:58:35.202Z,986.21
2018-06-08T00:59:45.233Z,986.25
2018-06-08T01:00:54.710Z,986.24
2018-06-08T01:02:04.211Z,986.22
2018-06-08T01:03:13.689Z,986.27
2018-06-08T01:04:23.476Z,986.27
2018-06-08T01:05:32.962Z,986.29
2018-06-08T01:06:42.969Z,986.33
2018-06-08T01:07:52.445Z,986.32
2018-06-08T01:09:02.194Z,986.33
2018-06-08T01:10:12.193Z,986.33
2018-06-08T01:11:22.197Z,986.35
2018-06-08T01:12:32.204Z,986.35
2018-06-08T01:13:42.208Z,986.39
2018-06-08T01:14:51.947Z,986.42
2018-06-08T01:16:01.951Z,986.43
2018-06-08T01:17:11.434Z,986.45
2018-06-08T01:18:21.180Z,986.46
2018-06-08T01:19:30.923Z,986.46
2018-06-08T01:20:40.670Z,986.46
2018-06-08T01:21:50.675Z,986.46
2018-06-08T01:22:59.884Z,986.47
2018-06-08T01:24:09.630Z,986.49
2018-06-08T01:25:19.107Z,986.49
2018-06-08T01:26:29.114Z,986.51
2018-06-08T01:27:38.591Z,986.47
2018-06-08T01:28:48.606Z,986.53
2018-06-08T01:29:58.084Z,986.53
2018-06-08T01:31:07.569Z,986.55
2018-06-08T01:32:17.576Z,986.55
2018-06-08T01:33:27.581Z,986.56
2018-06-08T01:34:37.060Z,986.59
2018-06-08T01:35:47.067Z,986.57
2018-06-08T01:36:57.080Z,986.56
2018-06-08T01:38:07.100Z,986.54
2018-06-08T01:39:16.584Z,986.55
2018-06-08T01:40:26.333Z,986.53
2018-06-08T01:41:36.337Z,986.56
2018-06-08T01:42:46.343Z,986.56
2018-06-08T01:43:55.820Z,986.55
2018-06-08T01:45:05.568Z,986.59
2018-06-08T01:46:14.782Z,986.58
2018-06-08T01:47:24.788Z,986.55
2018-06-08T01:48:34.794Z,986.6
2018-06-08T01:49:44.805Z,986.65
2018-06-08T01:50:54.280Z,986.6
2018-06-08T01:52:03.756Z,986.61
2018-06-08T01:53:13.511Z,986.61
2018-06-08T01:54:23.520Z,986.63
2018-06-08T01:55:32.997Z,986.6
2018-06-08T01:56:42.478Z,986.61
2018-06-08T01:57:52.493Z,986.59
2018-06-08T01:59:02.232Z,986.59
2018-06-08T02:00:11.978Z,986.57
2018-06-08T02:01:21.719Z,986.56
2018-06-08T02:02:31.732Z,986.57
2018-06-08T02:03:41.760Z,986.54
2018-06-08T02:04:51.804Z,986.54
2018-06-08T02:06:01.280Z,986.53
2018-06-08T02:07:11.290Z,986.55
2018-06-08T02:08:21.026Z,986.54
2018-06-08T02:09:31.049Z,986.53
2018-06-08T02:10:39.987Z,986.55
2018-06-08T02:11:48.928Z,986.54
2018-06-08T02:12:58.943Z,986.59
2018-06-08T02:14:08.689Z,986.57
2018-06-08T02:15:18.434Z,986.56
2018-06-08T02:16:28.440Z,986.56
2018-06-08T02:17:38.463Z,986.58
2018-06-08T02:18:48.485Z,986.55
2018-06-08T02:19:58.228Z,986.55
2018-06-08T02:21:07.441Z,986.55
2018-06-08T02:22:17.184Z,986.51
2018-06-08T02:23:27.209Z,986.53
2018-06-08T02:24:37.217Z,986.53
2018-06-08T02:25:46.967Z,986.51
2018-06-08T02:26:56.988Z,986.52
2018-06-08T02:28:06.727Z,986.55
2018-06-08T02:29:15.935Z,986.51
2018-06-08T02:30:25.974Z,986.53
2018-06-08T02:31:35.988Z,986.5
2018-06-08T02:32:45.766Z,986.51
2018-06-08T02:33:55.505Z,986.54
2018-06-08T02:35:05.516Z,986.56
2018-06-08T02:36:14.995Z,986.55
2018-06-08T02:37:24.484Z,986.55
2018-06-08T02:38:34.509Z,986.54
2018-06-08T02:39:44.001Z,986.54
2018-06-08T02:40:54.013Z,986.56
2018-06-08T02:42:04.028Z,986.47
2018-06-08T02:43:13.516Z,986.53
2018-06-08T02:44:23.531Z,986.5
2018-06-08T02:45:33.274Z,986.49
2018-06-08T02:46:43.037Z,986.55
2018-06-08T02:47:52.515Z,986.53
2018-06-08T02:49:02.256Z,986.46
2018-06-08T02:50:11.478Z,986.53
2018-06-08T02:51:21.499Z,986.5
2018-06-08T02:52:30.715Z,986.55
2018-06-08T02:53:40.723Z,986.57
2018-06-08T02:54:50.729Z,986.58
2018-06-08T02:56:00.478Z,986.61
2018-06-08T02:57:09.964Z,986.63
2018-06-08T02:58:19.988Z,986.61
2018-06-08T02:59:29.467Z,986.58
2018-06-08T03:03:22.580Z,986.55
2018-06-08T03:04:32.607Z,986.56
2018-06-08T03:05:41.543Z,986.55
2018-06-08T03:06:51.289Z,986.6
2018-06-08T03:08:01.043Z,986.58
2018-06-08T03:09:10.804Z,986.61
2018-06-08T03:10:20.816Z,986.63
2018-06-08T03:11:30.821Z,986.61
2018-06-08T03:12:40.833Z,986.61
2018-06-08T03:13:50.584Z,986.6
2018-06-08T03:15:00.326Z,986.61
2018-06-08T03:16:10.335Z,986.62
2018-06-08T03:17:20.347Z,986.62
2018-06-08T03:18:30.356Z,986.68
2018-06-08T03:19:40.096Z,986.66
2018-06-08T03:20:49.836Z,986.69
2018-06-08T03:21:59.849Z,986.69
2018-06-08T03:23:09.585Z,986.72
2018-06-08T03:24:19.590Z,986.73
2018-06-08T03:25:29.388Z,986.76
2018-06-08T03:26:39.133Z,986.7
2018-06-08T03:27:49.145Z,986.72
2018-06-08T03:28:59.154Z,986.73
2018-06-08T03:30:08.893Z,986.73
2018-06-08T03:31:18.109Z,986.73
2018-06-08T03:32:27.861Z,986.73
2018-06-08T03:33:37.611Z,986.78
2018-06-08T03:34:47.651Z,986.76
2018-06-08T03:35:57.168Z,986.77
2018-06-08T03:37:07.146Z,986.79
2018-06-08T03:38:16.895Z,986.81
2018-06-08T03:39:26.638Z,986.84
2018-06-08T03:40:36.389Z,986.85
2018-06-08T03:41:46.405Z,986.79
2018-06-08T03:42:56.419Z,986.79
2018-06-08T03:44:06.161Z,986.74
2018-06-08T03:45:15.640Z,986.81
2018-06-08T03:46:25.653Z,986.76
2018-06-08T03:47:35.397Z,986.74
2018-06-08T03:48:45.136Z,986.8
2018-06-08T03:49:54.947Z,986.8
2018-06-08T03:51:04.687Z,986.77
2018-06-08T03:52:14.691Z,986.81
2018-06-08T03:53:24.698Z,986.81
2018-06-08T03:54:33.903Z,986.78
2018-06-08T03:55:43.916Z,986.82
2018-06-08T03:56:53.978Z,986.82
2018-06-08T03:58:03.449Z,986.82
2018-06-08T03:59:13.459Z,986.85
2018-06-08T04:00:23.466Z,986.8
2018-06-08T04:01:33.483Z,986.84
2018-06-08T04:02:43.491Z,986.84
2018-06-08T04:03:53.233Z,986.84
2018-06-08T04:05:02.976Z,986.85
2018-06-08T04:06:12.451Z,986.87
2018-06-08T04:07:22.191Z,986.85
2018-06-08T04:08:32.241Z,986.86
2018-06-08T04:09:41.990Z,986.82
2018-06-08T04:10:51.737Z,986.85
2018-06-08T04:12:01.210Z,986.88
2018-06-08T04:13:11.220Z,986.89
2018-06-08T04:14:20.430Z,986.87
2018-06-08T04:15:30.169Z,986.92
2018-06-08T04:16:40.176Z,986.91
2018-06-08T04:17:49.971Z,986.93
2018-06-08T04:18:59.444Z,986.91
2018-06-08T04:20:09.456Z,986.9
2018-06-08T04:21:19.464Z,986.89
2018-06-08T04:22:29.467Z,986.87
2018-06-08T04:23:39.205Z,986.89
2018-06-08T04:24:48.682Z,986.87
2018-06-08T04:25:58.154Z,986.9
2018-06-08T04:27:08.177Z,986.85
2018-06-08T04:28:18.194Z,986.88
2018-06-08T04:29:28.196Z,986.88
2018-06-08T04:30:38.215Z,986.87
2018-06-08T04:31:48.237Z,986.83
2018-06-08T04:32:58.279Z,986.85
2018-06-08T04:34:07.930Z,986.83
2018-06-08T04:35:17.675Z,986.84
2018-06-08T04:36:27.687Z,986.85
2018-06-08T04:37:37.704Z,986.86
2018-06-08T04:38:47.713Z,986.88
2018-06-08T04:39:57.716Z,986.86
2018-06-08T04:41:07.194Z,986.86
2018-06-08T04:42:16.961Z,986.84
2018-06-08T04:43:26.711Z,986.87
2018-06-08T04:44:36.445Z,986.86
2018-06-08T04:45:46.185Z,986.85
2018-06-08T04:46:56.194Z,986.83
2018-06-08T04:48:05.957Z,986.83
2018-06-08T04:49:15.702Z,986.83
2018-06-08T04:50:25.709Z,986.88
2018-06-08T04:51:35.468Z,986.88
2018-06-08T04:52:45.613Z,986.88
2018-06-08T04:53:55.627Z,986.9
2018-06-08T04:55:05.201Z,986.94
2018-06-08T04:56:14.682Z,986.92
2018-06-08T04:57:24.695Z,986.95
2018-06-08T04:58:34.696Z,986.95
2018-06-08T04:59:44.434Z,986.9
2018-06-08T05:00:54.190Z,986.93
2018-06-08T05:02:04.206Z,986.92
2018-06-08T05:03:13.148Z,986.99
2018-06-08T05:04:22.889Z,986.96
2018-06-08T05:05:32.642Z,986.96
2018-06-08T05:06:42.383Z,986.97
2018-06-08T05:07:51.593Z,986.97
2018-06-08T05:09:01.331Z,986.95
2018-06-08T05:10:11.085Z,986.94
2018-06-08T05:11:20.826Z,986.93
2018-06-08T05:12:30.568Z,986.92
2018-06-08T05:13:40.312Z,986.92
2018-06-08T05:14:50.057Z,986.91
2018-06-08T05:16:00.169Z,986.92
2018-06-08T05:17:09.911Z,986.92
2018-06-08T05:18:19.930Z,986.91
2018-06-08T05:19:29.683Z,986.93
2018-06-08T05:20:39.694Z,986.91
2018-06-08T05:21:49.703Z,986.93
2018-06-08T05:22:59.762Z,986.91
2018-06-08T05:24:09.501Z,986.96
2018-06-08T05:25:19.242Z,986.94
2018-06-08T05:26:29.252Z,986.89
2018-06-08T05:27:38.737Z,986.93
2018-06-08T05:28:48.815Z,986.92
2018-06-08T05:29:58.826Z,986.89
2018-06-08T05:31:08.582Z,986.88
2018-06-08T05:32:18.333Z,986.89
2018-06-08T05:33:28.346Z,986.91
2018-06-08T05:34:38.090Z,986.92
2018-06-08T05:35:47.567Z,986.91
2018-06-08T05:36:57.578Z,986.9
2018-06-08T05:38:07.325Z,986.92
2018-06-08T05:39:17.341Z,986.95
2018-06-08T05:40:27.397Z,986.91
2018-06-08T05:41:37.438Z,986.92
2018-06-08T05:42:47.504Z,986.93
2018-06-08T05:43:56.984Z,986.92
2018-06-08T05:45:07.003Z,986.95
2018-06-08T05:46:16.756Z,986.92
2018-06-08T05:47:26.766Z,986.93
2018-06-08T05:48:36.573Z,986.94
2018-06-08T05:49:46.402Z,986.94
2018-06-08T05:50:56.412Z,986.96
2018-06-08T05:52:06.420Z,986.99
2018-06-08T05:53:16.170Z,986.95
2018-06-08T05:54:25.915Z,986.99
2018-06-08T05:55:35.943Z,986.98
2018-06-08T05:56:45.963Z,987
2018-06-08T05:57:55.975Z,987.02
2018-06-08T05:59:05.986Z,987.01
2018-06-08T06:00:15.468Z,987.02
2018-06-08T06:01:25.490Z,986.98
2018-06-08T06:02:35.512Z,986.98
2018-06-08T06:03:45.533Z,987.01
2018-06-08T06:04:55.537Z,987
2018-06-08T06:06:05.286Z,987.02
2018-06-08T06:07:15.039Z,987.03
2018-06-08T06:08:25.048Z,987.02
2018-06-08T06:09:35.064Z,987.03
2018-06-08T06:10:44.548Z,987.02
2018-06-08T06:11:54.025Z,987.03
2018-06-08T06:13:03.771Z,987.04
2018-06-08T06:14:13.789Z,987.02
2018-06-08T06:15:23.269Z,987.01
2018-06-08T06:16:33.017Z,987.05
2018-06-08T06:17:43.031Z,987.03
2018-06-08T06:18:53.041Z,987.02
2018-06-08T06:20:02.521Z,987.07
2018-06-08T06:21:12.637Z,987.04
2018-06-08T06:22:22.397Z,987.02
2018-06-08T06:23:32.417Z,986.99
2018-06-08T06:24:42.163Z,986.97
2018-06-08T06:25:51.649Z,987.01
2018-06-08T06:27:01.401Z,986.98
2018-06-08T06:28:11.149Z,986.99
2018-06-08T06:29:20.890Z,986.98
2018-06-08T06:30:30.365Z,986.99
2018-06-08T06:31:39.584Z,986.97
2018-06-08T06:32:49.330Z,986.99
2018-06-08T06:33:59.347Z,986.99
2018-06-08T06:35:09.360Z,987.02
2018-06-08T06:36:19.376Z,987.01
2018-06-08T06:37:29.119Z,987
2018-06-08T06:38:38.856Z,987
2018-06-08T06:39:48.599Z,987.01
2018-06-08T06:40:58.608Z,987.01
2018-06-08T06:42:08.081Z,986.99
2018-06-08T06:43:17.830Z,986.98
2018-06-08T06:44:27.585Z,986.98
2018-06-08T06:45:37.644Z,986.97
2018-06-08T06:46:47.659Z,986.97
2018-06-08T06:47:57.671Z,986.97
2018-06-08T06:49:07.419Z,986.98
2018-06-08T06:50:17.429Z,986.96
2018-06-08T06:51:27.218Z,986.96
2018-06-08T06:52:36.964Z,986.97
2018-06-08T06:53:46.708Z,986.95
2018-06-08T06:54:56.734Z,986.91
2018-06-08T06:56:06.218Z,986.93
2018-06-08T06:57:16.248Z,986.93
2018-06-08T06:58:25.993Z,986.93
2018-06-08T06:59:36.008Z,986.97
2018-06-08T07:00:45.758Z,986.97
2018-06-08T07:01:55.773Z,986.9
2018-06-08T07:03:05.527Z,986.95
2018-06-08T07:04:15.271Z,986.9
2018-06-08T07:05:25.121Z,986.93
2018-06-08T07:06:35.144Z,986.92
2018-06-08T07:07:44.891Z,986.91
2018-06-08T07:08:54.900Z,986.91
2018-06-08T07:10:04.647Z,986.91
2018-06-08T07:11:13.856Z,986.88
2018-06-08T07:12:23.871Z,986.95
2018-06-08T07:13:33.893Z,986.92
2018-06-08T07:14:43.639Z,986.93
2018-06-08T07:15:53.385Z,986.94
2018-06-08T07:17:03.399Z,986.92
2018-06-08T07:18:13.412Z,986.95
2018-06-08T07:19:23.157Z,986.93
2018-06-08T07:20:32.913Z,986.94
2018-06-08T07:21:42.922Z,986.93
2018-06-08T07:22:52.933Z,986.94
2018-06-08T07:24:02.997Z,986.93
2018-06-08T07:25:12.740Z,986.9
2018-06-08T07:26:22.747Z,986.91
2018-06-08T07:27:32.493Z,986.92
2018-06-08T07:28:42.500Z,986.96
2018-06-08T07:29:52.511Z,986.94
2018-06-08T07:31:01.996Z,986.91
2018-06-08T07:32:11.477Z,986.93
2018-06-08T07:33:20.971Z,986.9
2018-06-08T07:34:30.452Z,986.91
2018-06-08T07:35:40.465Z,986.91
2018-06-08T07:36:50.479Z,986.93
2018-06-08T07:38:00.491Z,986.89
2018-06-08T07:39:10.692Z,986.92
2018-06-08T07:40:19.917Z,986.91
2018-06-08T07:41:29.388Z,986.9
2018-06-08T07:42:39.407Z,986.9
2018-06-08T07:43:49.438Z,986.9
2018-06-08T07:44:59.183Z,986.91
2018-06-08T07:46:09.190Z,986.85
2018-06-08T07:47:18.403Z,986.84
2018-06-08T07:48:28.216Z,986.82
2018-06-08T07:49:38.229Z,986.82
2018-06-08T07:50:47.712Z,986.82
2018-06-08T07:51:57.462Z,986.81
2018-06-08T07:53:06.948Z,986.82
2018-06-08T07:54:16.709Z,986.81
2018-06-08T07:55:26.183Z,986.78
2018-06-08T07:56:36.199Z,986.81
2018-06-08T07:57:45.675Z,986.83
2018-06-08T07:58:55.504Z,986.78
2018-06-08T08:00:05.247Z,986.83
2018-06-08T08:01:15.072Z,986.76
2018-06-08T08:02:25.129Z,986.75
2018-06-08T08:03:34.607Z,986.74
2018-06-08T08:04:44.644Z,986.75
2018-06-08T08:05:54.654Z,986.77
2018-06-08T08:07:04.404Z,986.73
2018-06-08T08:08:14.417Z,986.74
2018-06-08T08:09:24.167Z,986.71
2018-06-08T08:10:33.917Z,986.73
2018-06-08T08:11:43.667Z,986.71
2018-06-08T08:12:53.523Z,986.69
2018-06-08T08:14:03.264Z,986.67
2018-06-08T08:15:12.758Z,986.68
2018-06-08T08:16:22.788Z,986.71
2018-06-08T08:17:32.807Z,986.75
2018-06-08T08:18:42.818Z,986.76
2018-06-08T08:19:52.849Z,986.74
2018-06-08T08:21:02.337Z,986.72
2018-06-08T08:22:12.352Z,986.74
2018-06-08T08:23:22.098Z,986.73
2018-06-08T08:24:31.843Z,986.72
2018-06-08T08:25:41.626Z,986.75
2018-06-08T08:26:51.240Z,986.72
2018-06-08T08:28:01.268Z,986.72
2018-06-08T08:29:10.749Z,986.68
2018-06-08T08:30:20.499Z,986.7
2018-06-08T08:31:30.526Z,986.7
2018-06-08T08:32:40.004Z,986.69
2018-06-08T08:33:49.754Z,986.68
2018-06-08T08:34:59.812Z,986.69
2018-06-08T08:36:09.308Z,986.69
2018-06-08T08:37:19.053Z,986.69
2018-06-08T08:38:28.807Z,986.67
2018-06-08T08:39:38.580Z,986.66
2018-06-08T08:40:48.208Z,986.7
2018-06-08T08:41:58.005Z,986.67
2018-06-08T08:43:08.029Z,986.68
2018-06-08T08:44:17.769Z,986.67
2018-06-08T08:45:27.246Z,986.67
2018-06-08T08:46:36.497Z,986.67
2018-06-08T08:47:46.254Z,986.68
2018-06-08T08:48:56.005Z,986.67
2018-06-08T08:50:05.764Z,986.69
2018-06-08T08:51:15.248Z,986.67
2018-06-08T08:52:25.297Z,986.74
2018-06-08T08:53:34.780Z,986.67
2018-06-08T08:54:44.793Z,986.67
2018-06-08T08:55:54.802Z,986.68
2018-06-08T08:57:04.820Z,986.63
2018-06-08T08:58:14.697Z,986.66
2018-06-08T08:59:24.178Z,986.61
2018-06-08T09:00:34.193Z,986.6
2018-06-08T09:01:43.956Z,986.6
2018-06-08T09:02:53.986Z,986.58
2018-06-08T09:04:04.103Z,986.59
2018-06-08T09:05:14.119Z,986.59
2018-06-08T09:06:23.596Z,986.6
2018-06-08T09:07:33.346Z,986.61
2018-06-08T09:08:43.091Z,986.59
2018-06-08T09:09:53.151Z,986.64
2018-06-08T09:11:02.894Z,986.6
2018-06-08T09:12:12.917Z,986.59
2018-06-08T09:13:22.666Z,986.54
2018-06-08T09:14:32.412Z,986.57
2018-06-08T09:15:42.431Z,986.54
2018-06-08T09:16:52.184Z,986.51
2018-06-08T09:18:02.195Z,986.51
2018-06-08T09:19:12.210Z,986.57
2018-06-08T09:20:22.234Z,986.54
2018-06-08T09:21:32.045Z,986.57
2018-06-08T09:22:41.792Z,986.54
2018-06-08T09:23:51.542Z,986.55
2018-06-08T09:25:01.555Z,986.55
2018-06-08T09:26:11.043Z,986.51
2018-06-08T09:27:20.647Z,986.59
2018-06-08T09:28:30.515Z,986.51
2018-06-08T09:29:40.533Z,986.55
2018-06-08T09:30:50.555Z,986.53
2018-06-08T09:32:00.577Z,986.53
2018-06-08T09:33:10.113Z,986.51
2018-06-08T09:34:20.274Z,986.45
2018-06-08T09:35:30.028Z,986.48
2018-06-08T09:36:40.050Z,986.42
2018-06-08T09:37:49.540Z,986.48
2018-06-08T09:38:59.555Z,986.4
2018-06-08T09:40:09.041Z,986.43
2018-06-08T09:41:18.258Z,986.4
2018-06-08T09:42:28.015Z,986.44
2018-06-08T09:43:37.500Z,986.41
2018-06-08T09:44:47.246Z,986.39
2018-06-08T09:45:57.381Z,986.4
2018-06-08T09:47:07.321Z,986.39
2018-06-08T09:48:17.336Z,986.45
2018-06-08T09:49:27.090Z,986.4
2018-06-08T09:50:36.636Z,986.39
2018-06-08T09:51:46.127Z,986.37
2018-06-08T09:52:56.143Z,986.37
2018-06-08T09:54:06.170Z,986.34
2018-06-08T09:55:16.187Z,986.33
2018-06-08T09:56:26.206Z,986.31
2018-06-08T09:57:35.951Z,986.3
2018-06-08T09:58:45.974Z,986.27
2018-06-08T09:59:55.994Z,986.29
2018-06-08T10:01:06.029Z,986.24
2018-06-08T10:02:15.515Z,986.28
2018-06-08T10:03:25.268Z,986.24
2018-06-08T10:04:35.280Z,986.21
2018-06-08T10:05:45.030Z,986.2
2018-06-08T10:06:54.786Z,986.19
2018-06-08T10:08:04.531Z,986.2
2018-06-08T10:09:14.544Z,986.19
2018-06-08T10:10:24.599Z,986.19
2018-06-08T10:11:33.812Z,986.17
2018-06-08T10:12:43.564Z,986.17
2018-06-08T10:13:53.581Z,986.15
2018-06-08T10:15:03.341Z,986.16
2018-06-08T10:16:13.089Z,986.2
2018-06-08T10:17:23.111Z,986.15
2018-06-08T10:18:32.869Z,986.16
2018-06-08T10:19:42.617Z,986.16
2018-06-08T10:20:52.847Z,986.13
2018-06-08T10:22:02.644Z,986.12
2018-06-08T10:23:12.478Z,986.1
2018-06-08T10:24:22.499Z,986.13
2018-06-08T10:25:32.510Z,986.11
2018-06-08T10:26:42.524Z,986.1
2018-06-08T10:27:52.537Z,986.08
2018-06-08T10:29:02.289Z,986.06
2018-06-08T10:30:12.061Z,986.06
2018-06-08T10:31:21.808Z,986.04
2018-06-08T10:32:31.820Z,986.03
2018-06-08T10:33:41.032Z,986.02
2018-06-08T10:34:51.050Z,985.99
2018-06-08T10:36:00.801Z,985.97
2018-06-08T10:37:10.550Z,985.97
2018-06-08T10:38:20.563Z,985.98
2018-06-08T10:39:30.316Z,985.97
2018-06-08T10:40:40.332Z,985.97
2018-06-08T10:41:50.090Z,985.95
2018-06-08T10:42:59.857Z,985.97
2018-06-08T10:44:09.602Z,985.95
2018-06-08T10:45:19.349Z,985.98
2018-06-08T10:46:29.108Z,985.94
2018-06-08T10:47:38.972Z,985.94
2018-06-08T10:48:48.803Z,985.89
2018-06-08T10:49:58.823Z,985.85
2018-06-08T10:51:08.850Z,985.88
2018-06-08T10:52:18.599Z,985.83
2018-06-08T10:53:28.613Z,985.88
2018-06-08T10:54:38.456Z,985.88
2018-06-08T10:55:48.205Z,985.83
2018-06-08T10:56:57.952Z,985.8
2018-06-08T10:58:07.966Z,985.85
2018-06-08T10:59:17.982Z,985.8
2018-06-08T11:00:31.109Z,985.77
2018-06-08T11:01:40.866Z,985.8
2018-06-08T11:02:50.885Z,985.81
2018-06-08T11:04:00.896Z,985.8
2018-06-08T11:05:10.925Z,985.78
2018-06-08T11:06:20.952Z,985.79
2018-06-08T11:07:30.969Z,985.76
2018-06-08T11:08:41.106Z,985.75
2018-06-08T11:09:50.864Z,985.8
2018-06-08T11:11:00.893Z,985.77
2018-06-08T11:12:10.909Z,985.74
2018-06-08T11:13:20.662Z,985.73
2018-06-08T11:14:29.883Z,985.74
2018-06-08T11:15:39.896Z,985.76
2018-06-08T11:16:49.912Z,985.76
2018-06-08T11:17:59.127Z,985.75
2018-06-08T11:19:08.884Z,985.76
2018-06-08T11:20:18.629Z,985.76
2018-06-08T11:21:28.653Z,985.77
2018-06-08T11:22:38.929Z,985.69
2018-06-08T11:23:48.680Z,985.75
2018-06-08T11:24:58.429Z,985.73
2018-06-08T11:26:08.176Z,985.7
2018-06-08T11:27:17.658Z,985.7
2018-06-08T11:28:27.680Z,985.69
2018-06-08T11:29:37.436Z,985.67
2018-06-08T11:30:47.460Z,985.69
2018-06-08T11:31:57.215Z,985.63
2018-06-08T11:33:06.964Z,985.65
2018-06-08T11:34:16.988Z,985.63
2018-06-08T11:35:26.737Z,985.66
2018-06-08T11:36:36.485Z,985.7
2018-06-08T11:37:46.501Z,985.74
2018-06-08T11:38:56.516Z,985.77
2018-06-08T11:40:06.002Z,985.82
2018-06-08T11:41:15.482Z,985.82
2018-06-08T11:42:25.232Z,985.77
2018-06-08T11:43:35.255Z,985.73
2018-06-08T11:44:45.002Z,985.73
2018-06-08T11:45:55.048Z,985.68
2018-06-08T11:47:04.954Z,985.66
2018-06-08T11:48:14.722Z,985.66
2018-06-08T11:49:24.474Z,985.65
2018-06-08T11:50:34.234Z,985.6
2018-06-08T11:51:44.257Z,985.61
2018-06-08T11:52:53.747Z,985.61
2018-06-08T11:54:03.781Z,985.6
2018-06-08T11:55:13.537Z,985.55
2018-06-08T11:56:23.565Z,985.62
2018-06-08T11:57:33.337Z,985.55
2018-06-08T11:58:42.828Z,985.57
2018-06-08T11:59:52.854Z,985.47
2018-06-08T12:01:02.692Z,985.45
2018-06-08T12:02:12.450Z,985.54
2018-06-08T12:03:22.210Z,985.46
2018-06-08T12:04:32.235Z,985.48
2018-06-08T12:05:42.267Z,985.51
2018-06-08T12:06:51.765Z,985.46
2018-06-08T12:08:01.791Z,985.48
2018-06-08T12:09:11.290Z,985.49
2018-06-08T12:10:21.325Z,985.5
2018-06-08T12:11:31.347Z,985.57
2018-06-08T12:12:41.372Z,985.47
2018-06-08T12:13:51.408Z,985.36
2018-06-08T12:15:01.168Z,985.44
2018-06-08T12:16:11.198Z,985.48
2018-06-08T12:17:21.230Z,985.44
2018-06-08T12:18:31.255Z,985.46
2018-06-08T12:19:41.282Z,985.35
2018-06-08T12:20:51.318Z,985.38
2018-06-08T12:22:01.083Z,985.32
2018-06-08T12:23:10.583Z,985.35
2018-06-08T12:24:20.608Z,985.3
2018-06-08T12:25:30.644Z,985.31
2018-06-08T12:26:39.873Z,985.29
2018-06-08T12:27:49.643Z,985.31
2018-06-08T12:28:59.682Z,985.3
2018-06-08T12:30:08.920Z,985.33
2018-06-08T12:31:18.949Z,985.33
2018-06-08T12:32:28.985Z,985.33
2018-06-08T12:33:38.743Z,985.25
2018-06-08T12:34:48.243Z,985.26
2018-06-08T12:35:58.006Z,985.23
2018-06-08T12:37:07.543Z,985.25
2018-06-08T12:38:17.576Z,985.2
2018-06-08T12:39:27.603Z,985.2
2018-06-08T12:40:36.830Z,985.15
2018-06-08T12:41:46.873Z,985.16
2018-06-08T12:42:56.643Z,985.16
2018-06-08T12:44:06.685Z,985.18
2018-06-08T12:45:16.449Z,985.09
2018-06-08T12:46:26.477Z,985.11
2018-06-08T12:47:36.240Z,985.13
2018-06-08T12:48:46.003Z,985.07
2018-06-08T12:49:56.083Z,985.1
2018-06-08T12:51:05.577Z,985.03
2018-06-08T12:52:15.341Z,985.12
2018-06-08T12:53:25.372Z,985.03
2018-06-08T12:54:35.145Z,985.08
2018-06-08T12:55:44.475Z,985.07
2018-06-08T12:56:54.035Z,984.97
2018-06-08T12:58:03.267Z,984.89
2018-06-08T12:59:12.763Z,985.01
2018-06-08T13:00:22.260Z,984.92
2018-06-08T13:01:32.293Z,985.01
2018-06-08T13:02:42.062Z,985.03
2018-06-08T13:03:52.104Z,984.83
2018-06-08T13:05:01.876Z,984.83
2018-06-08T13:06:10.841Z,984.82
2018-06-08T13:07:20.612Z,984.83
2018-06-08T13:08:30.382Z,984.9
2018-06-08T13:09:40.140Z,984.88
2018-06-08T13:10:50.061Z,984.81
2018-06-08T13:12:00.212Z,984.84
2018-06-08T13:13:09.986Z,984.91
2018-06-08T13:14:20.012Z,984.88
2018-06-08T13:15:29.783Z,984.82
2018-06-08T13:16:39.313Z,984.78
2018-06-08T13:17:48.814Z,984.85
2018-06-08T13:18:58.873Z,984.96
2018-06-08T13:20:08.693Z,984.97
2018-06-08T13:21:18.485Z,984.9
2018-06-08T13:22:27.711Z,984.94
2018-06-08T13:23:37.750Z,985.03
2018-06-08T13:24:47.251Z,985.05
2018-06-08T13:25:57.048Z,985.01
2018-06-08T13:27:06.556Z,985.04
2018-06-08T13:28:16.331Z,985.04
2018-06-08T13:29:26.373Z,985.09
2018-06-08T13:30:36.449Z,985.06
2018-06-08T13:31:46.235Z,985.07
2018-06-08T13:32:56.359Z,985
2018-06-08T13:34:06.240Z,985.03
2018-06-08T13:35:15.743Z,984.97
2018-06-08T13:36:25.785Z,984.92
2018-06-08T13:37:35.555Z,984.98
2018-06-08T13:38:45.345Z,985.12
2018-06-08T13:39:55.110Z,985.07
2018-06-08T13:41:05.154Z,985.07
2018-06-08T13:42:14.927Z,985.08
2018-06-08T13:43:24.957Z,985.06
2018-06-08T13:44:34.730Z,985.07
2018-06-08T13:45:44.229Z,985.02
2018-06-08T13:46:54.006Z,985.11
2018-06-08T13:48:03.769Z,985.08
2018-06-08T13:49:13.801Z,985.01
2018-06-08T13:50:23.568Z,985.16
2018-06-08T13:51:33.598Z,985.15
2018-06-08T13:52:43.374Z,985.12
2018-06-08T13:53:53.463Z,985.21
2018-06-08T13:55:03.233Z,985.16
2018-06-08T13:56:12.996Z,985.25
2018-06-08T13:57:23.028Z,985.15
2018-06-08T13:58:32.792Z,985.22
2018-06-08T13:59:42.827Z,985.25
2018-06-08T14:00:52.858Z,985.29
2018-06-08T14:02:02.377Z,985.27
2018-06-08T14:03:12.325Z,985.3
2018-06-08T14:04:22.097Z,985.35
2018-06-08T14:05:31.594Z,985.23
2018-06-08T14:06:41.622Z,985.23
2018-06-08T14:07:51.397Z,985.34
2018-06-08T14:09:01.167Z,985.52
2018-06-08T14:10:11.203Z,985.44
2018-06-08T14:11:21.234Z,985.4
2018-06-08T14:12:31.269Z,985.3
2018-06-08T14:13:41.306Z,985.17
2018-06-08T14:14:51.337Z,985.19
2018-06-08T14:16:00.841Z,985.02
2018-06-08T14:17:10.613Z,985.07
2018-06-08T14:18:20.385Z,985.12
2018-06-08T14:19:30.417Z,985.07
2018-06-08T14:20:40.458Z,985.02
2018-06-08T14:21:50.281Z,985.06
2018-06-08T14:23:00.056Z,985.21
2018-06-08T14:24:09.823Z,985.21
2018-06-08T14:25:19.853Z,985.12
2018-06-08T14:26:29.623Z,985.35
2018-06-08T14:27:39.173Z,985.39
2018-06-08T14:28:48.995Z,985.31
2018-06-08T14:29:59.033Z,985.14
2018-06-08T14:31:09.112Z,985.14
2018-06-08T14:32:18.884Z,985.33
2018-06-08T14:33:28.648Z,985.6
2018-06-08T14:34:37.619Z,985.66
2018-06-08T14:35:47.665Z,985.69
2018-06-08T14:36:57.693Z,985.82